Time;durP1;ratioP1;P1;durP2;ratioP2;P2;SDS_P1;SDS_P2;PMS_P1;PMS_P2;Temp;Humidity;BMP_temperature;BMP_pressure;BME280_temperature;BME280_humidity;BME280_pressure;Samples;Min_cycle;Max_cycle;Signal;HPM_P1;HPM_P2
2022/08/06 00:02:23;;;;;;;11.40;8.73;;;;;;;;;;762225;184;627633;-57
2022/08/06 00:04:48;;;;;;;13.00;9.70;;;;;;;;;;770439;184;616211;-57
2022/08/06 00:07:14;;;;;;;10.03;8.60;;;;;;;;;;767190;184;614640;-56
2022/08/06 00:09:39;;;;;;;10.43;9.13;;;;;;;;;;762976;185;644156;-56
2022/08/06 00:12:06;;;;;;;10.30;8.93;;;;;;;;;;763087;183;616246;-60
2022/08/06 00:14:31;;;;;;;11.00;9.00;;;;;;;;;;751805;187;624495;-56
2022/08/06 00:16:57;;;;;;;14.03;8.93;;;;;;;;;;751468;188;631704;-56
2022/08/06 00:19:23;;;;;;;11.33;10.10;;;;;;;;;;760967;183;631592;-57
2022/08/06 00:21:49;;;;;;;18.47;9.80;;;;;;;;;;766217;185;620118;-59
2022/08/06 00:24:15;;;;;;;11.70;10.43;;;;;;;;;;754474;185;621216;-60
2022/08/06 00:26:41;;;;;;;12.07;10.00;;;;;;;;;;753967;187;625509;-56
2022/08/06 00:29:07;;;;;;;11.77;9.47;;;;;;;;;;762937;185;622987;-60
2022/08/06 00:31:33;;;;;;;12.13;10.10;;;;;;;;;;761489;183;624718;-60
2022/08/06 00:34:01;;;;;;;12.57;9.40;;;;;;;;;;762145;184;626658;-56
2022/08/06 00:36:25;;;;;;;10.10;9.10;;;;;;;;;;765407;185;624372;-57
2022/08/06 00:38:50;;;;;;;10.20;9.17;;;;;;;;;;762662;184;633679;-60
2022/08/06 00:41:16;;;;;;;13.23;9.93;;;;;;;;;;760457;185;627271;-59
2022/08/06 00:43:42;;;;;;;11.97;9.90;;;;;;;;;;756689;185;629480;-56
2022/08/06 00:46:08;;;;;;;10.90;9.80;;;;;;;;;;759395;183;627617;-60
2022/08/06 00:48:34;;;;;;;12.43;9.60;;;;;;;;;;762803;185;620545;-60
2022/08/06 00:51:00;;;;;;;10.93;9.53;;;;;;;;;;762810;183;628439;-57
2022/08/06 00:53:26;;;;;;;12.60;10.97;;;;;;;;;;765983;185;652926;-57
2022/08/06 00:55:51;;;;;;;10.17;9.10;;;;;;;;;;761225;185;629240;-59
2022/08/06 00:58:17;;;;;;;11.80;9.80;;;;;;;;;;760926;185;628913;-56
2022/08/06 01:00:43;;;;;;;11.57;8.77;;;;;;;;;;763582;186;717009;-56
2022/08/06 01:03:10;;;;;;;11.70;8.97;;;;;;;;;;760276;184;616810;-56
2022/08/06 01:05:35;;;;;;;11.60;8.80;;;;;;;;;;759863;185;636808;-56
2022/08/06 01:08:01;;;;;;;11.87;8.07;;;;;;;;;;760495;184;635451;-59
2022/08/06 01:10:26;;;;;;;11.00;9.40;;;;;;;;;;766260;185;616213;-57
2022/08/06 01:12:52;;;;;;;13.03;9.60;;;;;;;;;;762355;185;621985;-59
2022/08/06 01:15:18;;;;;;;11.43;8.50;;;;;;;;;;762340;185;619336;-59
2022/08/06 01:17:47;;;;;;;10.17;8.77;;;;;;;;;;766403;185;632739;-59
2022/08/06 01:20:18;;;;;;;12.30;8.23;;;;;;;;;;751398;186;618937;-60
2022/08/06 01:22:50;;;;;;;12.47;8.23;;;;;;;;;;751664;188;630171;-60
2022/08/06 01:25:37;;;;;;;10.87;8.00;;;;;;;;;;746206;187;621760;-60
2022/08/06 01:28:05;;;;;;;8.67;6.83;;;;;;;;;;746632;184;625170;-56
2022/08/06 01:30:31;;;;;;;11.07;5.77;;;;;;;;;;759770;184;623423;-59
2022/08/06 01:32:57;;;;;;;10.20;6.20;;;;;;;;;;763619;184;635000;-58
2022/08/06 01:35:26;;;;;;;8.73;6.10;;;;;;;;;;762345;183;619939;-59
2022/08/06 01:37:50;;;;;;;7.77;5.27;;;;;;;;;;764900;183;626225;-59
2022/08/06 01:40:16;;;;;;;9.67;5.97;;;;;;;;;;767900;185;617872;-56
2022/08/06 01:42:42;;;;;;;8.20;6.17;;;;;;;;;;759521;184;618115;-59
2022/08/06 01:45:08;;;;;;;7.70;6.30;;;;;;;;;;760226;184;617007;-58
2022/08/06 01:47:34;;;;;;;8.10;5.30;;;;;;;;;;764614;186;616867;-58
2022/08/06 01:50:00;;;;;;;13.40;5.90;;;;;;;;;;763235;184;629715;-55
2022/08/06 01:52:26;;;;;;;7.63;5.53;;;;;;;;;;763983;183;629392;-58
2022/08/06 01:54:52;;;;;;;7.10;4.83;;;;;;;;;;766760;184;626817;-56
2022/08/06 01:57:17;;;;;;;6.53;5.23;;;;;;;;;;770608;184;617259;-57
2022/08/06 01:59:43;;;;;;;12.63;4.63;;;;;;;;;;764015;184;629995;-55
2022/08/06 02:02:09;;;;;;;6.70;5.20;;;;;;;;;;762886;184;629391;-59
2022/08/06 02:04:35;;;;;;;7.37;5.00;;;;;;;;;;768320;184;627185;-59
2022/08/06 02:07:01;;;;;;;12.50;5.40;;;;;;;;;;766512;184;639639;-58
2022/08/06 02:09:26;;;;;;;6.00;5.00;;;;;;;;;;766714;184;630320;-58
2022/08/06 02:11:53;;;;;;;9.77;5.50;;;;;;;;;;770633;184;628211;-59
2022/08/06 02:14:19;;;;;;;7.47;4.80;;;;;;;;;;766844;184;632811;-56
2022/08/06 02:16:45;;;;;;;8.57;6.53;;;;;;;;;;767016;184;627158;-58
2022/08/06 02:19:11;;;;;;;8.43;4.90;;;;;;;;;;764443;184;627398;-57
2022/08/06 02:21:37;;;;;;;5.43;4.60;;;;;;;;;;766162;184;622693;-58
2022/08/06 02:24:02;;;;;;;9.10;4.63;;;;;;;;;;762380;184;641437;-58
2022/08/06 02:26:28;;;;;;;7.00;5.03;;;;;;;;;;762374;185;615797;-58
2022/08/06 02:28:54;;;;;;;6.80;4.90;;;;;;;;;;767317;184;620232;-56
2022/08/06 02:31:20;;;;;;;5.83;4.53;;;;;;;;;;766144;184;615170;-59
2022/08/06 02:33:46;;;;;;;5.37;4.77;;;;;;;;;;765634;184;629438;-55
2022/08/06 02:36:16;;;;;;;4.80;4.20;;;;;;;;;;766475;184;625384;-58
2022/08/06 02:38:41;;;;;;;6.57;4.50;;;;;;;;;;763445;184;618494;-55
2022/08/06 02:41:12;;;;;;;6.73;4.50;;;;;;;;;;760822;186;624879;-58
2022/08/06 02:43:37;;;;;;;5.90;4.70;;;;;;;;;;760921;184;627726;-58
2022/08/06 02:46:08;;;;;;;6.37;4.30;;;;;;;;;;769533;184;628447;-58
2022/08/06 02:48:33;;;;;;;5.33;4.03;;;;;;;;;;767849;182;634117;-57
2022/08/06 02:50:59;;;;;;;7.78;5.03;;;;;;;;;;768278;184;623015;-56
2022/08/06 02:53:25;;;;;;;6.50;4.97;;;;;;;;;;767781;184;632794;-56
2022/08/06 02:55:51;;;;;;;4.87;4.37;;;;;;;;;;768447;183;624520;-58
2022/08/06 02:58:19;;;;;;;6.20;4.83;;;;;;;;;;768638;183;635806;-58
2022/08/06 03:00:43;;;;;;;5.63;4.87;;;;;;;;;;767045;183;628929;-56
2022/08/06 03:03:09;;;;;;;5.00;4.43;;;;;;;;;;771021;184;633451;-55
2022/08/06 03:05:36;;;;;;;10.40;5.27;;;;;;;;;;764424;184;628363;-56
2022/08/06 03:08:01;;;;;;;6.80;5.50;;;;;;;;;;763274;185;625109;-58
2022/08/06 03:10:27;;;;;;;7.03;5.10;;;;;;;;;;765513;184;627448;-56
2022/08/06 03:12:53;;;;;;;6.73;4.60;;;;;;;;;;759600;184;627019;-58
2022/08/06 03:15:18;;;;;;;6.17;4.97;;;;;;;;;;761309;184;621172;-55
2022/08/06 03:17:44;;;;;;;12.23;4.83;;;;;;;;;;761103;184;629161;-58
2022/08/06 03:20:10;;;;;;;6.83;4.40;;;;;;;;;;761552;184;628471;-56
2022/08/06 03:22:36;;;;;;;6.60;5.07;;;;;;;;;;760789;184;634621;-58
2022/08/06 03:25:02;;;;;;;8.30;5.37;;;;;;;;;;760068;184;630620;-56
2022/08/06 03:27:28;;;;;;;6.13;4.80;;;;;;;;;;765636;184;626954;-59
2022/08/06 03:29:54;;;;;;;6.20;5.10;;;;;;;;;;762568;184;624470;-56
2022/08/06 03:32:20;;;;;;;7.23;4.97;;;;;;;;;;760271;184;631414;-57
2022/08/06 03:34:46;;;;;;;4.83;4.23;;;;;;;;;;762016;184;619190;-59
2022/08/06 03:37:11;;;;;;;9.40;4.90;;;;;;;;;;762003;184;637377;-58
2022/08/06 03:39:37;;;;;;;7.57;5.37;;;;;;;;;;761401;184;617328;-56
2022/08/06 03:42:04;;;;;;;5.45;4.90;;;;;;;;;;762311;184;627211;-57
2022/08/06 03:44:30;;;;;;;9.50;5.53;;;;;;;;;;761937;184;626973;-58
2022/08/06 03:46:57;;;;;;;10.40;7.23;;;;;;;;;;759214;184;625299;-55
2022/08/06 03:49:23;;;;;;;9.50;6.23;;;;;;;;;;759448;185;625828;-59
2022/08/06 03:51:49;;;;;;;6.60;4.90;;;;;;;;;;766286;184;614281;-55
2022/08/06 03:54:15;;;;;;;6.53;5.53;;;;;;;;;;762698;184;629214;-55
2022/08/06 03:56:40;;;;;;;5.27;4.73;;;;;;;;;;760723;184;628287;-58
2022/08/06 03:59:06;;;;;;;6.47;5.37;;;;;;;;;;763650;183;628128;-55
2022/08/06 04:01:32;;;;;;;6.40;5.27;;;;;;;;;;762720;183;634415;-55
2022/08/06 04:03:58;;;;;;;8.73;5.90;;;;;;;;;;762375;184;629416;-58
2022/08/06 04:06:24;;;;;;;8.67;7.63;;;;;;;;;;759922;184;632137;-56
2022/08/06 04:08:50;;;;;;;7.30;5.77;;;;;;;;;;770534;181;616564;-55
2022/08/06 04:11:16;;;;;;;5.90;5.30;;;;;;;;;;760105;184;632369;-59
2022/08/06 04:13:41;;;;;;;7.17;6.00;;;;;;;;;;760397;184;624486;-56
2022/08/06 04:16:07;;;;;;;9.00;6.40;;;;;;;;;;766775;184;627863;-58
2022/08/06 04:18:33;;;;;;;7.00;6.30;;;;;;;;;;762647;184;619894;-59
2022/08/06 04:21:02;;;;;;;6.97;6.00;;;;;;;;;;762259;184;626661;-56
2022/08/06 04:23:28;;;;;;;7.00;6.00;;;;;;;;;;762110;184;626474;-59
2022/08/06 04:25:54;;;;;;;7.60;5.80;;;;;;;;;;759361;184;627992;-57
2022/08/06 04:28:19;;;;;;;9.17;6.73;;;;;;;;;;760168;184;646882;-56
2022/08/06 04:30:45;;;;;;;7.30;6.03;;;;;;;;;;760132;184;631779;-59
2022/08/06 04:33:11;;;;;;;8.43;7.30;;;;;;;;;;760128;184;621260;-58
2022/08/06 04:35:37;;;;;;;8.13;7.00;;;;;;;;;;760659;184;626196;-59
2022/08/06 04:38:03;;;;;;;11.17;7.83;;;;;;;;;;760476;184;628637;-58
2022/08/06 04:40:29;;;;;;;7.67;6.30;;;;;;;;;;767651;184;630218;-56
2022/08/06 04:42:54;;;;;;;8.40;7.50;;;;;;;;;;760386;184;649608;-56
2022/08/06 04:45:20;;;;;;;9.70;7.03;;;;;;;;;;761232;184;626130;-55
2022/08/06 04:47:46;;;;;;;7.87;7.10;;;;;;;;;;762921;184;616600;-58
2022/08/06 04:50:12;;;;;;;9.97;8.40;;;;;;;;;;760319;184;629282;-56
2022/08/06 04:52:38;;;;;;;8.53;6.30;;;;;;;;;;761533;184;618138;-58
2022/08/06 04:55:04;;;;;;;6.70;6.00;;;;;;;;;;760488;184;635972;-58
2022/08/06 04:57:30;;;;;;;10.23;6.43;;;;;;;;;;761859;184;658030;-56
2022/08/06 04:59:56;;;;;;;8.43;6.37;;;;;;;;;;762237;184;616830;-56
2022/08/06 05:02:22;;;;;;;10.40;6.20;;;;;;;;;;761268;184;703967;-55
2022/08/06 05:04:53;;;;;;;7.40;6.07;;;;;;;;;;766652;184;630249;-54
2022/08/06 05:07:17;;;;;;;9.47;6.20;;;;;;;;;;759022;184;703391;-58
2022/08/06 05:09:43;;;;;;;9.33;6.00;;;;;;;;;;759686;184;613879;-57
2022/08/06 05:12:14;;;;;;;6.97;6.00;;;;;;;;;;766602;183;619018;-57
2022/08/06 05:14:41;;;;;;;6.57;5.17;;;;;;;;;;761267;184;630955;-57
2022/08/06 05:17:07;;;;;;;7.23;6.17;;;;;;;;;;758625;184;637208;-55
2022/08/06 05:19:34;;;;;;;6.00;5.10;;;;;;;;;;762954;184;632554;-55
2022/08/06 05:21:59;;;;;;;9.30;5.63;;;;;;;;;;763824;185;627054;-57
2022/08/06 05:24:25;;;;;;;6.53;5.90;;;;;;;;;;762319;184;628011;-54
2022/08/06 05:26:51;;;;;;;11.20;7.33;;;;;;;;;;748553;184;633239;-55
2022/08/06 05:29:18;;;;;;;7.20;6.30;;;;;;;;;;764594;184;623420;-55
2022/08/06 05:31:44;;;;;;;7.40;5.50;;;;;;;;;;760423;185;628004;-57
2022/08/06 05:34:09;;;;;;;6.33;5.73;;;;;;;;;;760519;184;629441;-55
2022/08/06 05:36:35;;;;;;;8.23;6.37;;;;;;;;;;760971;184;627182;-57
2022/08/06 05:39:01;;;;;;;10.10;6.60;;;;;;;;;;770460;181;624688;-56
2022/08/06 05:41:29;;;;;;;9.60;7.23;;;;;;;;;;760986;184;616818;-57
2022/08/06 05:43:55;;;;;;;8.30;7.27;;;;;;;;;;760693;184;718516;-60
2022/08/06 05:46:21;;;;;;;8.60;7.47;;;;;;;;;;763454;184;632052;-62
2022/08/06 05:48:48;;;;;;;11.63;7.90;;;;;;;;;;761684;184;623212;-61
2022/08/06 05:51:15;;;;;;;13.00;8.90;;;;;;;;;;762018;184;625804;-62
2022/08/06 05:53:41;;;;;;;9.43;8.02;;;;;;;;;;764709;184;623940;-60
2022/08/06 05:56:07;;;;;;;10.93;7.40;;;;;;;;;;755032;185;648342;-58
2022/08/06 05:58:36;;;;;;;8.70;6.10;;;;;;;;;;760812;184;618387;-57
2022/08/06 06:01:01;;;;;;;6.60;5.90;;;;;;;;;;762965;184;628765;-58
2022/08/06 06:03:27;;;;;;;6.80;5.80;;;;;;;;;;766174;184;630139;-61
2022/08/06 06:05:53;;;;;;;9.40;6.93;;;;;;;;;;760786;184;622908;-57
2022/08/06 06:08:19;;;;;;;10.80;6.57;;;;;;;;;;760924;184;619201;-59
2022/08/06 06:10:45;;;;;;;8.10;5.97;;;;;;;;;;764322;184;618376;-60
2022/08/06 06:13:11;;;;;;;6.87;5.53;;;;;;;;;;760320;184;620748;-58
2022/08/06 06:15:36;;;;;;;8.47;7.27;;;;;;;;;;760904;184;624003;-60
2022/08/06 06:18:12;;;;;;;10.93;7.17;;;;;;;;;;760086;184;654243;-58
2022/08/06 06:20:44;;;;;;;8.83;7.80;;;;;;;;;;759817;184;624879;-58
2022/08/06 06:23:11;;;;;;;10.87;8.20;;;;;;;;;;766864;183;620726;-56
2022/08/06 06:25:37;;;;;;;15.47;9.77;;;;;;;;;;765234;183;631870;-57
2022/08/06 06:28:08;;;;;;;8.57;7.70;;;;;;;;;;760840;184;628923;-59
2022/08/06 06:30:46;;;;;;;13.77;8.07;;;;;;;;;;767281;184;629192;-58
2022/08/06 06:33:26;;;;;;;11.20;9.07;;;;;;;;;;765269;184;619178;-56
2022/08/06 06:35:53;;;;;;;8.17;7.37;;;;;;;;;;766139;183;617244;-57
2022/08/06 06:38:21;;;;;;;8.43;5.50;;;;;;;;;;759488;184;635099;-55
2022/08/06 06:40:52;;;;;;;7.30;5.00;;;;;;;;;;762967;184;623343;-57
2022/08/06 06:43:18;;;;;;;5.30;4.20;;;;;;;;;;759637;184;624034;-56
2022/08/06 06:45:47;;;;;;;4.87;3.17;;;;;;;;;;764147;183;624394;-56
2022/08/06 06:48:16;;;;;;;5.13;2.93;;;;;;;;;;761460;184;639399;-57
2022/08/06 06:50:42;;;;;;;4.50;3.07;;;;;;;;;;760380;184;637982;-57
2022/08/06 06:53:08;;;;;;;3.87;3.00;;;;;;;;;;765740;184;610170;-57
2022/08/06 06:55:35;;;;;;;3.20;2.60;;;;;;;;;;762649;184;621077;-56
2022/08/06 06:58:02;;;;;;;2.90;2.20;;;;;;;;;;761646;184;639402;-57
2022/08/06 07:00:28;;;;;;;3.20;1.90;;;;;;;;;;759698;184;630740;-62
2022/08/06 07:02:54;;;;;;;5.00;1.60;;;;;;;;;;761710;184;619063;-57
2022/08/06 07:05:20;;;;;;;5.57;2.03;;;;;;;;;;760719;184;632327;-57
2022/08/06 07:07:46;;;;;;;3.33;1.93;;;;;;;;;;758235;184;627746;-57
2022/08/06 07:10:12;;;;;;;2.67;1.50;;;;;;;;;;762897;184;633067;-57
2022/08/06 07:12:38;;;;;;;2.43;1.40;;;;;;;;;;760404;184;629645;-55
2022/08/06 07:15:04;;;;;;;2.50;1.47;;;;;;;;;;761441;184;617012;-55
2022/08/06 07:17:31;;;;;;;3.30;1.33;;;;;;;;;;761359;184;618621;-56
2022/08/06 07:19:56;;;;;;;2.80;1.60;;;;;;;;;;764392;184;624455;-55
2022/08/06 07:22:22;;;;;;;3.27;1.67;;;;;;;;;;760263;184;635097;-56
2022/08/06 07:24:48;;;;;;;3.10;2.20;;;;;;;;;;760951;184;625598;-58
2022/08/06 07:27:14;;;;;;;3.07;1.40;;;;;;;;;;764018;184;618739;-55
2022/08/06 07:29:39;;;;;;;3.20;1.77;;;;;;;;;;759501;184;628370;-54
2022/08/06 07:32:06;;;;;;;3.77;2.33;;;;;;;;;;760320;184;625476;-55
2022/08/06 07:34:31;;;;;;;4.30;1.87;;;;;;;;;;766110;183;621934;-55
2022/08/06 07:36:57;;;;;;;5.80;2.30;;;;;;;;;;761858;183;626869;-55
2022/08/06 07:39:23;;;;;;;2.20;1.40;;;;;;;;;;762692;184;619440;-57
2022/08/06 07:41:49;;;;;;;3.30;1.37;;;;;;;;;;765073;184;633939;-55
2022/08/06 07:44:15;;;;;;;2.40;1.70;;;;;;;;;;760831;184;626391;-57
2022/08/06 07:46:41;;;;;;;2.60;1.70;;;;;;;;;;760235;184;625290;-54
2022/08/06 07:49:07;;;;;;;2.50;1.73;;;;;;;;;;762511;184;626774;-57
2022/08/06 07:51:32;;;;;;;1.97;1.13;;;;;;;;;;763913;184;613308;-55
2022/08/06 07:53:58;;;;;;;2.87;1.80;;;;;;;;;;760610;184;631219;-54
2022/08/06 07:56:25;;;;;;;2.80;1.60;;;;;;;;;;762420;184;619201;-55
2022/08/06 07:58:51;;;;;;;9.10;2.43;;;;;;;;;;764711;184;634987;-55
2022/08/06 08:01:17;;;;;;;4.73;2.10;;;;;;;;;;760503;184;607883;-56
2022/08/06 08:06:18;;;;;;;4.40;1.70;;;;;;;;;;762397;184;619184;-57
2022/08/06 08:08:44;;;;;;;2.37;0.90;;;;;;;;;;763400;184;636720;-55
2022/08/06 08:11:10;;;;;;;2.50;1.00;;;;;;;;;;761129;184;635123;-58
2022/08/06 08:13:36;;;;;;;3.90;1.00;;;;;;;;;;762942;183;627375;-55
2022/08/06 08:16:02;;;;;;;1.90;1.00;;;;;;;;;;764180;184;628496;-55
2022/08/06 08:18:28;;;;;;;2.00;1.20;;;;;;;;;;754367;183;621430;-55
2022/08/06 08:20:54;;;;;;;2.30;1.10;;;;;;;;;;761761;184;614265;-57
2022/08/06 08:23:20;;;;;;;5.83;2.30;;;;;;;;;;760670;184;628633;-57
2022/08/06 08:25:46;;;;;;;2.20;1.20;;;;;;;;;;763115;184;617111;-55
2022/08/06 08:28:12;;;;;;;3.70;1.30;;;;;;;;;;759728;184;627180;-55
2022/08/06 08:30:38;;;;;;;3.50;1.47;;;;;;;;;;757805;184;649219;-54
2022/08/06 08:33:03;;;;;;;3.00;1.43;;;;;;;;;;764866;184;624922;-56
2022/08/06 08:35:29;;;;;;;2.10;1.10;;;;;;;;;;761511;183;624419;-56
2022/08/06 08:37:55;;;;;;;3.60;1.63;;;;;;;;;;759634;184;628145;-54
2022/08/06 08:40:21;;;;;;;4.80;1.60;;;;;;;;;;765172;184;630548;-54
2022/08/06 08:42:47;;;;;;;4.43;1.50;;;;;;;;;;760607;184;625351;-55
2022/08/06 08:45:12;;;;;;;3.10;2.03;;;;;;;;;;762247;184;615561;-56
2022/08/06 08:47:38;;;;;;;4.03;2.40;;;;;;;;;;763086;183;629150;-54
2022/08/06 08:50:04;;;;;;;3.07;2.20;;;;;;;;;;756440;184;632629;-55
2022/08/06 08:52:32;;;;;;;2.87;1.90;;;;;;;;;;761004;184;619514;-54
2022/08/06 08:54:58;;;;;;;2.80;1.90;;;;;;;;;;762937;184;631776;-56
2022/08/06 08:57:26;;;;;;;4.40;2.43;;;;;;;;;;765897;184;625377;-56
2022/08/06 08:59:50;;;;;;;4.70;3.00;;;;;;;;;;763243;184;622561;-54
2022/08/06 09:02:15;;;;;;;3.53;2.53;;;;;;;;;;762363;184;629339;-54
2022/08/06 09:04:41;;;;;;;3.57;2.67;;;;;;;;;;762704;184;633116;-54
2022/08/06 09:07:07;;;;;;;3.47;2.60;;;;;;;;;;762536;184;626935;-54
2022/08/06 09:09:34;;;;;;;3.70;2.83;;;;;;;;;;762825;184;625256;-54
2022/08/06 09:11:59;;;;;;;3.97;2.80;;;;;;;;;;758829;184;618675;-55
2022/08/06 09:14:25;;;;;;;5.37;3.00;;;;;;;;;;760439;184;627160;-54
2022/08/06 09:16:50;;;;;;;3.90;2.60;;;;;;;;;;760214;184;633131;-56
2022/08/06 09:19:16;;;;;;;3.83;2.60;;;;;;;;;;761154;184;636122;-56
2022/08/06 09:21:42;;;;;;;3.27;2.30;;;;;;;;;;764050;184;620988;-54
2022/08/06 09:24:08;;;;;;;4.33;2.63;;;;;;;;;;760613;184;623392;-54
2022/08/06 09:26:34;;;;;;;3.73;2.73;;;;;;;;;;758841;184;628694;-56
2022/08/06 09:29:00;;;;;;;6.80;3.17;;;;;;;;;;763219;184;634226;-53
2022/08/06 09:31:26;;;;;;;5.10;3.53;;;;;;;;;;758387;184;625249;-54
2022/08/06 09:33:53;;;;;;;5.20;3.30;;;;;;;;;;760520;183;633599;-55
2022/08/06 09:36:19;;;;;;;6.10;3.60;;;;;;;;;;760073;184;642687;-54
2022/08/06 09:38:46;;;;;;;6.90;3.00;;;;;;;;;;762135;184;628277;-53
2022/08/06 09:41:12;;;;;;;4.70;3.20;;;;;;;;;;760648;184;625450;-54
2022/08/06 09:43:37;;;;;;;4.77;3.10;;;;;;;;;;759593;184;619592;-55
2022/08/06 09:46:03;;;;;;;3.97;3.13;;;;;;;;;;763998;184;609313;-55
2022/08/06 09:48:29;;;;;;;4.37;3.30;;;;;;;;;;763989;184;621117;-54
2022/08/06 09:50:55;;;;;;;5.00;2.60;;;;;;;;;;761897;184;637116;-56
2022/08/06 09:53:22;;;;;;;7.27;3.30;;;;;;;;;;764969;184;629754;-53
2022/08/06 09:55:47;;;;;;;6.60;3.80;;;;;;;;;;760374;184;625325;-53
2022/08/06 09:58:13;;;;;;;5.20;3.57;;;;;;;;;;762873;183;625461;-55
2022/08/06 10:00:38;;;;;;;6.50;2.80;;;;;;;;;;762017;183;628350;-56
2022/08/06 10:03:04;;;;;;;5.73;3.13;;;;;;;;;;763755;185;632320;-53
2022/08/06 10:05:30;;;;;;;6.40;3.47;;;;;;;;;;761591;185;627709;-53
2022/08/06 10:07:57;;;;;;;6.83;3.90;;;;;;;;;;763208;185;618534;-56
2022/08/06 10:10:28;;;;;;;4.63;2.90;;;;;;;;;;766152;184;638387;-54
2022/08/06 10:12:54;;;;;;;5.83;3.07;;;;;;;;;;761620;184;618691;-56
2022/08/06 10:15:23;;;;;;;5.30;3.73;;;;;;;;;;763146;185;624899;-56
2022/08/06 10:17:49;;;;;;;7.47;4.43;;;;;;;;;;755556;184;633294;-54
2022/08/06 10:20:16;;;;;;;5.07;3.80;;;;;;;;;;764741;184;621258;-53
2022/08/06 10:22:46;;;;;;;5.53;3.77;;;;;;;;;;762206;184;626990;-56
2022/08/06 10:25:12;;;;;;;4.30;3.57;;;;;;;;;;760064;184;616372;-54
2022/08/06 10:27:38;;;;;;;3.73;3.37;;;;;;;;;;764960;184;622488;-53
2022/08/06 10:30:05;;;;;;;4.17;3.23;;;;;;;;;;759733;184;635229;-54
2022/08/06 10:32:32;;;;;;;4.80;3.27;;;;;;;;;;757667;184;624773;-56
2022/08/06 10:34:58;;;;;;;6.53;3.27;;;;;;;;;;760797;184;639178;-58
2022/08/06 10:37:23;;;;;;;5.80;3.03;;;;;;;;;;765230;184;633114;-56
2022/08/06 10:39:49;;;;;;;3.37;2.80;;;;;;;;;;760098;184;623529;-54
2022/08/06 10:42:15;;;;;;;3.70;2.90;;;;;;;;;;762655;184;633361;-58
2022/08/06 10:44:41;;;;;;;3.30;2.87;;;;;;;;;;763610;184;628137;-54
2022/08/06 10:47:07;;;;;;;6.90;3.53;;;;;;;;;;755334;184;627087;-54
2022/08/06 10:49:33;;;;;;;4.73;3.13;;;;;;;;;;760766;184;640121;-56
2022/08/06 10:51:58;;;;;;;4.70;3.53;;;;;;;;;;759445;185;613667;-58
2022/08/06 10:54:24;;;;;;;4.77;3.20;;;;;;;;;;762557;184;623423;-57
2022/08/06 10:56:50;;;;;;;4.63;3.40;;;;;;;;;;766018;184;623247;-56
2022/08/06 10:59:16;;;;;;;4.30;2.90;;;;;;;;;;760519;184;633287;-57
2022/08/06 11:01:45;;;;;;;11.30;5.97;;;;;;;;;;766264;184;638311;-56
2022/08/06 11:04:28;;;;;;;5.80;5.27;;;;;;;;;;763415;184;632052;-56
2022/08/06 11:07:09;;;;;;;6.20;5.40;;;;;;;;;;763409;183;630876;-54
2022/08/06 11:09:36;;;;;;;37.27;28.17;;;;;;;;;;763967;183;621849;-57
2022/08/06 11:12:04;;;;;;;26.37;16.03;;;;;;;;;;762642;183;622748;-57
2022/08/06 11:14:30;;;;;;;7.70;5.83;;;;;;;;;;762974;184;640274;-56
2022/08/06 11:16:56;;;;;;;19.70;14.27;;;;;;;;;;754322;183;632418;-54
2022/08/06 11:19:22;;;;;;;16.50;12.10;;;;;;;;;;758985;184;632499;-57
2022/08/06 11:21:49;;;;;;;15.93;10.30;;;;;;;;;;759290;184;631656;-54
2022/08/06 11:24:15;;;;;;;14.97;9.83;;;;;;;;;;765729;184;612860;-57
2022/08/06 11:26:40;;;;;;;17.50;11.03;;;;;;;;;;763289;183;623737;-56
2022/08/06 11:29:08;;;;;;;40.60;26.37;;;;;;;;;;760782;184;629604;-56
2022/08/06 11:31:39;;;;;;;6.60;5.83;;;;;;;;;;766201;184;626930;-57
2022/08/06 11:34:05;;;;;;;9.10;4.37;;;;;;;;;;760548;184;628195;-55
2022/08/06 11:36:30;;;;;;;4.67;3.43;;;;;;;;;;758621;184;638252;-58
2022/08/06 11:38:56;;;;;;;4.20;3.60;;;;;;;;;;761700;184;646081;-54
2022/08/06 11:41:22;;;;;;;4.60;4.00;;;;;;;;;;767070;184;623366;-54
2022/08/06 11:43:49;;;;;;;4.13;3.47;;;;;;;;;;760723;184;627554;-56
2022/08/06 11:46:19;;;;;;;6.00;3.10;;;;;;;;;;761510;184;632000;-56
2022/08/06 11:48:51;;;;;;;4.33;3.20;;;;;;;;;;763868;184;618765;-54
2022/08/06 11:51:23;;;;;;;9.37;4.30;;;;;;;;;;758912;184;633319;-54
2022/08/06 11:54:10;;;;;;;8.53;4.63;;;;;;;;;;759019;184;621035;-56
2022/08/06 11:56:35;;;;;;;7.27;4.60;;;;;;;;;;759871;184;630769;-54
2022/08/06 11:59:07;;;;;;;6.80;3.90;;;;;;;;;;759869;184;638266;-56
2022/08/06 12:01:50;;;;;;;6.67;3.93;;;;;;;;;;758181;184;623230;-56
2022/08/06 12:04:22;;;;;;;4.97;3.50;;;;;;;;;;760444;184;618541;-53
2022/08/06 12:06:48;;;;;;;7.70;5.70;;;;;;;;;;764343;184;622860;-55
2022/08/06 12:09:18;;;;;;;5.57;4.70;;;;;;;;;;760808;184;616603;-57
2022/08/06 12:11:40;;;;;;;8.50;6.60;;;;;;;;;;760565;184;621156;-58
2022/08/06 12:14:06;;;;;;;5.13;4.60;;;;;;;;;;760061;184;624828;-54
2022/08/06 12:16:32;;;;;;;9.63;5.50;;;;;;;;;;759359;184;616896;-56
2022/08/06 12:18:58;;;;;;;10.87;6.90;;;;;;;;;;761166;184;619242;-54
2022/08/06 12:21:24;;;;;;;7.33;6.10;;;;;;;;;;763266;183;631062;-54
2022/08/06 12:23:51;;;;;;;6.53;5.20;;;;;;;;;;768192;183;622033;-53
2022/08/06 12:26:16;;;;;;;11.47;7.70;;;;;;;;;;764846;184;615123;-57
2022/08/06 12:28:42;;;;;;;9.90;6.40;;;;;;;;;;764824;184;631369;-54
2022/08/06 12:31:08;;;;;;;15.13;8.20;;;;;;;;;;762299;184;623336;-55
2022/08/06 12:33:34;;;;;;;24.03;11.10;;;;;;;;;;771727;182;625263;-57
2022/08/06 12:36:00;;;;;;;17.93;6.27;;;;;;;;;;760459;184;626757;-55
2022/08/06 12:38:27;;;;;;;10.80;6.30;;;;;;;;;;754822;185;620956;-56
2022/08/06 12:40:53;;;;;;;14.33;8.80;;;;;;;;;;763966;184;630039;-57
2022/08/06 12:43:19;;;;;;;10.07;5.13;;;;;;;;;;761867;184;637170;-57
2022/08/06 12:45:44;;;;;;;6.90;5.60;;;;;;;;;;765770;183;624241;-56
2022/08/06 12:48:10;;;;;;;9.20;6.30;;;;;;;;;;765873;184;630271;-53
2022/08/06 12:50:36;;;;;;;6.50;5.27;;;;;;;;;;762483;184;619912;-53
2022/08/06 12:53:06;;;;;;;7.37;5.40;;;;;;;;;;759650;184;629927;-55
2022/08/06 12:55:32;;;;;;;8.67;4.53;;;;;;;;;;751623;184;628614;-56
2022/08/06 12:57:58;;;;;;;8.67;5.80;;;;;;;;;;764095;184;625606;-53
2022/08/06 13:00:23;;;;;;;8.30;4.00;;;;;;;;;;761750;184;642963;-53
2022/08/06 13:02:49;;;;;;;13.60;6.10;;;;;;;;;;764073;184;625797;-55
2022/08/06 13:05:15;;;;;;;8.57;6.17;;;;;;;;;;765160;184;627691;-56
2022/08/06 13:07:41;;;;;;;11.73;6.07;;;;;;;;;;764862;184;621775;-55
2022/08/06 13:10:09;;;;;;;10.87;7.97;;;;;;;;;;761423;185;629396;-56
2022/08/06 13:12:35;;;;;;;11.50;9.30;;;;;;;;;;764684;185;630822;-56
2022/08/06 13:15:00;;;;;;;5.40;3.87;;;;;;;;;;760960;184;642751;-53
2022/08/06 13:17:26;;;;;;;7.73;5.50;;;;;;;;;;760880;184;630088;-56
2022/08/06 13:19:54;;;;;;;5.60;4.60;;;;;;;;;;758513;184;635639;-55
2022/08/06 13:22:20;;;;;;;9.20;6.03;;;;;;;;;;763229;184;616973;-53
2022/08/06 13:24:46;;;;;;;7.23;5.97;;;;;;;;;;760760;184;617470;-56
2022/08/06 13:27:12;;;;;;;6.80;6.10;;;;;;;;;;760420;184;626624;-54
2022/08/06 13:29:37;;;;;;;5.30;4.80;;;;;;;;;;764055;184;616395;-55
2022/08/06 13:32:05;;;;;;;6.47;5.43;;;;;;;;;;760722;183;615023;-54
2022/08/06 13:34:31;;;;;;;8.50;6.23;;;;;;;;;;762748;183;619780;-54
2022/08/06 13:36:59;;;;;;;7.20;6.17;;;;;;;;;;762068;184;617999;-57
2022/08/06 13:39:24;;;;;;;5.40;4.90;;;;;;;;;;760781;184;622297;-55
2022/08/06 13:41:56;;;;;;;7.40;5.40;;;;;;;;;;760466;184;616990;-53
2022/08/06 13:44:25;;;;;;;7.60;5.53;;;;;;;;;;761495;183;639756;-55
2022/08/06 13:46:51;;;;;;;7.77;4.90;;;;;;;;;;759848;184;636838;-55
2022/08/06 13:49:17;;;;;;;7.17;5.23;;;;;;;;;;760479;184;653783;-54
2022/08/06 13:51:43;;;;;;;5.30;4.80;;;;;;;;;;761420;184;627190;-54
2022/08/06 13:54:09;;;;;;;6.13;4.90;;;;;;;;;;759668;184;617026;-54
2022/08/06 13:56:35;;;;;;;7.00;4.73;;;;;;;;;;765078;184;637104;-52
2022/08/06 13:59:00;;;;;;;8.23;6.33;;;;;;;;;;760721;184;622109;-53
2022/08/06 14:01:26;;;;;;;7.73;5.70;;;;;;;;;;761187;184;624619;-54
2022/08/06 14:03:52;;;;;;;7.10;5.00;;;;;;;;;;764573;184;623137;-56
2022/08/06 14:06:18;;;;;;;5.50;5.00;;;;;;;;;;759026;184;623842;-56
2022/08/06 14:08:44;;;;;;;6.70;6.00;;;;;;;;;;760398;183;632872;-54
2022/08/06 14:11:10;;;;;;;7.27;4.53;;;;;;;;;;765726;184;626012;-56
2022/08/06 14:13:37;;;;;;;8.23;5.97;;;;;;;;;;764484;184;633167;-58
2022/08/06 14:16:02;;;;;;;7.13;5.37;;;;;;;;;;759422;184;632429;-56
2022/08/06 14:18:29;;;;;;;7.13;5.43;;;;;;;;;;759226;184;613079;-54
2022/08/06 14:20:54;;;;;;;10.93;5.93;;;;;;;;;;763164;184;623057;-54
2022/08/06 14:23:20;;;;;;;6.53;5.87;;;;;;;;;;751307;184;637887;-54
2022/08/06 14:25:46;;;;;;;6.00;4.90;;;;;;;;;;763341;184;626953;-56